Time;durP1;ratioP1;P1;durP2;ratioP2;P2;SDS_P1;SDS_P2;PMS_P1;PMS_P2;Temp;Humidity;BMP_temperature;BMP_pressure;BME280_temperature;BME280_humidity;BME280_pressure;Samples;Min_cycle;Max_cycle;Signal;HPM_P1;HPM_P2
2023/07/24 00:00:53;;;;;;;0.40;0.40;;;;;;;;;;5035187;28;20105;-85
2023/07/24 00:03:19;;;;;;;0.63;0.57;;;;;;;;;;5035066;28;20040;-85
2023/07/24 00:05:45;;;;;;;0.30;0.30;;;;;;;;;;5034917;28;20109;-86
2023/07/24 00:08:11;;;;;;;0.35;0.35;;;;;;;;;;5034805;28;20030;-86
2023/07/24 00:10:37;;;;;;;0.57;0.35;;;;;;;;;;5035856;28;20032;-86
2023/07/24 00:13:03;;;;;;;0.75;0.75;;;;;;;;;;5034863;28;20103;-86
2023/07/24 00:15:29;;;;;;;0.45;0.43;;;;;;;;;;5035227;28;20025;-85
2023/07/24 00:17:55;;;;;;;0.63;0.50;;;;;;;;;;5034140;28;20409;-85
2023/07/24 00:20:21;;;;;;;0.63;0.43;;;;;;;;;;5035105;28;20025;-85
2023/07/24 00:22:47;;;;;;;0.55;0.55;;;;;;;;;;5034527;28;20025;-85
2023/07/24 00:25:13;;;;;;;2.03;1.80;;;;;;;;;;5033511;28;20032;-86
2023/07/24 00:27:39;;;;;;;0.85;0.47;;;;;;;;;;5034482;28;20037;-85
2023/07/24 00:30:05;;;;;;;0.47;0.47;;;;;;;;;;5035577;28;20025;-86
2023/07/24 00:32:31;;;;;;;0.50;0.50;;;;;;;;;;5033762;28;20108;-86
2023/07/24 00:34:57;;;;;;;0.35;0.15;;;;;;;;;;5035073;28;20439;-86
2023/07/24 00:37:23;;;;;;;0.70;0.63;;;;;;;;;;5034254;28;20034;-85
2023/07/24 00:39:49;;;;;;;0.45;0.40;;;;;;;;;;5034437;28;20017;-85
2023/07/24 00:42:15;;;;;;;0.85;0.55;;;;;;;;;;5034418;28;20051;-85
2023/07/24 00:44:41;;;;;;;0.47;0.47;;;;;;;;;;5034180;28;20053;-86
2023/07/24 00:47:07;;;;;;;0.28;0.28;;;;;;;;;;5034965;28;20160;-86
2023/07/24 00:49:34;;;;;;;0.20;0.20;;;;;;;;;;5034301;28;20068;-85
2023/07/24 00:52:00;;;;;;;0.45;0.20;;;;;;;;;;5034136;28;20100;-85
2023/07/24 00:54:27;;;;;;;2.83;0.40;;;;;;;;;;5034327;28;20110;-86
2023/07/24 00:56:54;;;;;;;1.67;0.80;;;;;;;;;;5034351;28;20029;-85
2023/07/24 00:59:20;;;;;;;0.52;0.47;;;;;;;;;;5034192;28;20056;-85
2023/07/24 01:01:46;;;;;;;0.10;0.10;;;;;;;;;;5034065;28;20477;-86
2023/07/24 01:04:13;;;;;;;3.00;0.80;;;;;;;;;;5034015;28;20036;-85
2023/07/24 01:06:39;;;;;;;0.60;0.43;;;;;;;;;;5033817;28;20079;-85
2023/07/24 01:09:05;;;;;;;0.50;0.50;;;;;;;;;;5034143;28;20049;-86
2023/07/24 01:11:37;;;;;;;0.20;0.20;;;;;;;;;;5033882;28;20029;-85
2023/07/24 01:14:23;;;;;;;0.20;0.20;;;;;;;;;;5033469;28;20029;-86
2023/07/24 01:16:50;;;;;;;0.20;0.20;;;;;;;;;;5033525;28;20046;-86
2023/07/24 01:19:19;;;;;;;3.25;0.63;;;;;;;;;;5034092;28;20041;-85
2023/07/24 01:21:59;;;;;;;0.38;0.38;;;;;;;;;;5033953;28;20080;-85
2023/07/24 01:24:31;;;;;;;0.13;0.13;;;;;;;;;;5033354;28;20036;-86
2023/07/24 01:26:57;;;;;;;0.20;0.20;;;;;;;;;;5033443;28;20445;-85
2023/07/24 01:29:23;;;;;;;0.28;0.28;;;;;;;;;;5033545;28;20080;-85
2023/07/24 01:31:49;;;;;;;0.20;0.20;;;;;;;;;;5033000;28;20034;-85
2023/07/24 01:34:15;;;;;;;0.10;0.10;;;;;;;;;;5033600;28;20021;-85
2023/07/24 01:36:41;;;;;;;0.45;0.43;;;;;;;;;;5033295;28;20029;-86
2023/07/24 01:39:07;;;;;;;0.15;0.15;;;;;;;;;;5033129;28;20025;-85
2023/07/24 01:41:33;;;;;;;0.55;0.40;;;;;;;;;;5033773;28;20036;-85
2023/07/24 01:43:59;;;;;;;0.88;0.30;;;;;;;;;;5032586;28;20026;-85
2023/07/24 01:46:25;;;;;;;0.30;0.30;;;;;;;;;;5033272;28;20041;-84
2023/07/24 01:48:52;;;;;;;0.35;0.35;;;;;;;;;;5033143;28;20386;-85
2023/07/24 01:51:18;;;;;;;1.13;0.85;;;;;;;;;;5033946;28;20148;-85
2023/07/24 01:53:44;;;;;;;2.05;1.08;;;;;;;;;;5033548;28;20053;-85
2023/07/24 01:56:10;;;;;;;0.93;0.70;;;;;;;;;;5032921;28;20029;-85
2023/07/24 01:58:36;;;;;;;1.10;0.52;;;;;;;;;;5033500;28;20432;-85
2023/07/24 02:01:02;;;;;;;0.63;0.50;;;;;;;;;;5032996;28;20033;-85
2023/07/24 02:03:28;;;;;;;0.40;0.40;;;;;;;;;;5031446;28;20052;-85
2023/07/24 02:05:54;;;;;;;0.55;0.55;;;;;;;;;;5033790;28;20132;-85
2023/07/24 02:08:20;;;;;;;0.50;0.50;;;;;;;;;;5032674;28;20084;-85
2023/07/24 02:10:48;;;;;;;0.28;0.28;;;;;;;;;;5033181;28;20022;-85
2023/07/24 02:13:14;;;;;;;0.10;0.10;;;;;;;;;;5032320;28;20032;-85
2023/07/24 02:15:40;;;;;;;0.98;0.43;;;;;;;;;;5033000;28;20026;-85
2023/07/24 02:18:06;;;;;;;0.20;0.20;;;;;;;;;;5032500;28;20053;-85
2023/07/24 02:20:32;;;;;;;0.08;0.08;;;;;;;;;;5032552;28;20031;-85
2023/07/24 02:22:58;;;;;;;0.90;0.30;;;;;;;;;;5032424;28;20421;-85
2023/07/24 02:25:24;;;;;;;0.52;0.32;;;;;;;;;;5032794;28;20033;-86
2023/07/24 02:27:50;;;;;;;0.10;0.10;;;;;;;;;;5032065;28;20461;-85
2023/07/24 02:30:16;;;;;;;0.15;0.15;;;;;;;;;;5032489;28;20025;-85
2023/07/24 02:32:42;;;;;;;1.20;0.90;;;;;;;;;;5032213;28;20026;-85
2023/07/24 02:35:08;;;;;;;0.10;0.10;;;;;;;;;;5032223;28;20120;-85
2023/07/24 02:37:34;;;;;;;0.03;0.03;;;;;;;;;;5032695;28;20053;-86
2023/07/24 02:40:00;;;;;;;0.35;0.35;;;;;;;;;;5032524;28;20489;-85
2023/07/24 02:42:26;;;;;;;0.25;0.25;;;;;;;;;;5031877;28;20033;-85
2023/07/24 02:44:53;;;;;;;0.00;0.00;;;;;;;;;;5032275;28;20382;-85
2023/07/24 02:47:19;;;;;;;0.32;0.15;;;;;;;;;;5031408;28;20043;-85
2023/07/24 02:49:45;;;;;;;0.10;0.10;;;;;;;;;;5032340;28;20100;-85
2023/07/24 02:52:11;;;;;;;0.08;0.08;;;;;;;;;;5033203;28;20036;-85
2023/07/24 02:54:36;;;;;;;0.00;0.00;;;;;;;;;;5032160;28;20030;-85
2023/07/24 02:57:03;;;;;;;0.17;0.17;;;;;;;;;;5031855;28;20033;-85
2023/07/24 02:59:29;;;;;;;0.10;0.10;;;;;;;;;;5032563;28;20025;-85
2023/07/24 03:01:55;;;;;;;0.10;0.10;;;;;;;;;;5032011;28;20041;-85
2023/07/24 03:04:21;;;;;;;0.52;0.47;;;;;;;;;;5032240;28;20390;-85
2023/07/24 03:06:47;;;;;;;0.70;0.38;;;;;;;;;;5032634;28;20124;-85
2023/07/24 03:09:13;;;;;;;0.20;0.20;;;;;;;;;;5031911;28;20028;-85
2023/07/24 03:11:39;;;;;;;0.32;0.32;;;;;;;;;;5031970;28;20492;-85
2023/07/24 03:14:05;;;;;;;0.50;0.20;;;;;;;;;;5031557;28;20030;-86
2023/07/24 03:16:31;;;;;;;0.22;0.22;;;;;;;;;;5032118;28;20041;-85
2023/07/24 03:18:57;;;;;;;0.40;0.40;;;;;;;;;;5031937;28;20041;-85
2023/07/24 03:21:23;;;;;;;0.10;0.10;;;;;;;;;;5031762;28;20022;-85
2023/07/24 03:23:49;;;;;;;0.20;0.20;;;;;;;;;;5031653;28;20036;-85
2023/07/24 03:26:15;;;;;;;0.20;0.20;;;;;;;;;;5030271;28;20034;-85
2023/07/24 03:28:41;;;;;;;0.38;0.38;;;;;;;;;;5031724;28;20025;-85
2023/07/24 03:31:07;;;;;;;0.10;0.10;;;;;;;;;;5031707;28;20036;-85
2023/07/24 03:33:33;;;;;;;0.05;0.05;;;;;;;;;;5031861;28;20075;-85
2023/07/24 03:35:59;;;;;;;0.05;0.05;;;;;;;;;;5031745;28;20382;-85
2023/07/24 03:38:25;;;;;;;0.50;0.50;;;;;;;;;;5031614;28;20028;-85
2023/07/24 03:40:51;;;;;;;0.10;0.10;;;;;;;;;;5031439;28;20038;-85
2023/07/24 03:43:17;;;;;;;0.00;0.00;;;;;;;;;;5032138;28;20032;-85
2023/07/24 03:45:44;;;;;;;0.40;0.40;;;;;;;;;;5031271;28;20120;-85
2023/07/24 03:48:10;;;;;;;0.00;0.00;;;;;;;;;;5031659;28;20034;-85
2023/07/24 03:50:36;;;;;;;0.13;0.13;;;;;;;;;;5031982;28;20510;-85
2023/07/24 03:53:02;;;;;;;0.10;0.10;;;;;;;;;;5033372;28;20101;-85
2023/07/24 03:55:28;;;;;;;0.10;0.10;;;;;;;;;;5031329;28;20029;-85
2023/07/24 03:57:54;;;;;;;0.28;0.28;;;;;;;;;;5032317;28;20025;-85
2023/07/24 04:00:20;;;;;;;0.40;0.40;;;;;;;;;;5035191;28;20053;-85
2023/07/24 04:02:47;;;;;;;0.10;0.10;;;;;;;;;;5035152;28;20115;-85
2023/07/24 04:05:13;;;;;;;0.22;0.13;;;;;;;;;;5035054;28;20037;-85
2023/07/24 04:07:39;;;;;;;0.10;0.10;;;;;;;;;;5035204;28;20028;-85
2023/07/24 04:10:06;;;;;;;0.25;0.25;;;;;;;;;;5034601;28;20498;-85
2023/07/24 04:12:32;;;;;;;0.10;0.10;;;;;;;;;;5035337;28;20029;-85
2023/07/24 04:14:58;;;;;;;0.45;0.45;;;;;;;;;;5034759;28;20029;-85
2023/07/24 04:17:24;;;;;;;0.22;0.22;;;;;;;;;;5034727;28;20103;-85
2023/07/24 04:19:50;;;;;;;0.65;0.63;;;;;;;;;;5034779;28;20025;-85
2023/07/24 04:22:16;;;;;;;0.30;0.28;;;;;;;;;;5035484;28;20029;-85
2023/07/24 04:24:42;;;;;;;0.15;0.15;;;;;;;;;;5034141;28;20076;-85
2023/07/24 04:27:08;;;;;;;1.00;0.70;;;;;;;;;;5034375;28;20050;-85
2023/07/24 04:29:34;;;;;;;0.98;0.85;;;;;;;;;;5034968;28;20026;-86
2023/07/24 04:32:00;;;;;;;0.85;0.85;;;;;;;;;;5034726;28;20504;-85
2023/07/24 04:34:26;;;;;;;0.52;0.40;;;;;;;;;;5034433;28;20025;-85
2023/07/24 04:36:52;;;;;;;0.13;0.13;;;;;;;;;;5034676;28;20083;-85
2023/07/24 04:39:18;;;;;;;0.40;0.40;;;;;;;;;;5034467;28;20037;-85
2023/07/24 04:41:44;;;;;;;0.47;0.47;;;;;;;;;;5033533;28;20469;-85
2023/07/24 04:44:10;;;;;;;0.80;0.30;;;;;;;;;;5034251;28;20026;-85
2023/07/24 04:46:35;;;;;;;0.63;0.47;;;;;;;;;;5034072;28;20068;-86
2023/07/24 04:49:01;;;;;;;0.10;0.10;;;;;;;;;;5034410;28;20363;-85
2023/07/24 04:51:27;;;;;;;0.15;0.15;;;;;;;;;;5033843;28;20025;-85
2023/07/24 04:53:54;;;;;;;0.20;0.20;;;;;;;;;;5034140;28;20029;-85
2023/07/24 04:56:20;;;;;;;3.75;0.80;;;;;;;;;;5034878;28;20473;-85
2023/07/24 04:58:46;;;;;;;0.52;0.43;;;;;;;;;;5033888;28;20020;-85
2023/07/24 05:01:12;;;;;;;0.73;0.73;;;;;;;;;;5033910;28;20034;-85
2023/07/24 05:03:38;;;;;;;2.28;0.90;;;;;;;;;;5034021;28;20029;-85
2023/07/24 05:06:04;;;;;;;0.50;0.50;;;;;;;;;;5033482;28;20091;-85
2023/07/24 05:08:30;;;;;;;1.38;0.55;;;;;;;;;;5034362;28;20026;-85
2023/07/24 05:10:56;;;;;;;0.70;0.70;;;;;;;;;;5033359;28;20440;-85
2023/07/24 05:13:22;;;;;;;6.13;2.40;;;;;;;;;;5033813;28;20025;-85
2023/07/24 05:15:48;;;;;;;0.63;0.55;;;;;;;;;;5033660;28;20075;-85
2023/07/24 05:18:14;;;;;;;0.50;0.50;;;;;;;;;;5033533;28;20052;-85
2023/07/24 05:20:43;;;;;;;0.75;0.40;;;;;;;;;;5034448;28;20021;-85
2023/07/24 05:23:09;;;;;;;1.55;1.00;;;;;;;;;;5033025;28;20113;-85
2023/07/24 05:25:35;;;;;;;0.75;0.63;;;;;;;;;;5033854;28;20497;-85
2023/07/24 05:28:01;;;;;;;0.60;0.60;;;;;;;;;;5033278;28;20017;-85
2023/07/24 05:30:28;;;;;;;0.52;0.52;;;;;;;;;;5033494;28;20378;-85
2023/07/24 05:32:54;;;;;;;0.30;0.30;;;;;;;;;;5033474;28;20017;-85
2023/07/24 05:35:20;;;;;;;0.40;0.40;;;;;;;;;;5033136;28;20034;-85
2023/07/24 05:37:47;;;;;;;1.08;0.73;;;;;;;;;;5033535;28;20109;-85
2023/07/24 05:40:13;;;;;;;1.30;0.77;;;;;;;;;;5033363;28;20083;-85
2023/07/24 05:42:41;;;;;;;1.90;1.33;;;;;;;;;;5033282;28;20030;-85
2023/07/24 05:45:08;;;;;;;0.32;0.25;;;;;;;;;;5033610;28;20061;-85
2023/07/24 05:47:34;;;;;;;0.65;0.65;;;;;;;;;;5033493;28;20107;-86
2023/07/24 05:50:00;;;;;;;0.40;0.40;;;;;;;;;;5032696;28;20029;-85
2023/07/24 05:52:26;;;;;;;0.20;0.20;;;;;;;;;;5032953;28;20083;-85
2023/07/24 05:54:52;;;;;;;3.20;0.50;;;;;;;;;;5033159;28;20057;-85
2023/07/24 05:57:18;;;;;;;0.10;0.10;;;;;;;;;;5033064;28;20047;-85
2023/07/24 05:59:44;;;;;;;0.22;0.22;;;;;;;;;;5033756;28;20396;-86
2023/07/24 06:02:10;;;;;;;0.30;0.30;;;;;;;;;;5032975;28;20072;-85
2023/07/24 06:04:36;;;;;;;0.32;0.32;;;;;;;;;;5032686;28;20030;-85
2023/07/24 06:07:02;;;;;;;0.68;0.60;;;;;;;;;;5032705;28;20125;-85
2023/07/24 06:09:28;;;;;;;0.22;0.22;;;;;;;;;;5032779;28;20105;-85
2023/07/24 06:11:54;;;;;;;0.10;0.10;;;;;;;;;;5032708;28;20068;-85
2023/07/24 06:14:20;;;;;;;0.20;0.20;;;;;;;;;;5032614;28;20025;-85
2023/07/24 06:16:46;;;;;;;0.25;0.15;;;;;;;;;;5033027;28;20057;-85
2023/07/24 06:19:12;;;;;;;0.13;0.13;;;;;;;;;;5032322;28;20164;-85
2023/07/24 06:21:38;;;;;;;0.15;0.15;;;;;;;;;;5032657;28;20029;-85
2023/07/24 06:24:04;;;;;;;0.20;0.20;;;;;;;;;;5032253;28;20021;-85
2023/07/24 06:26:30;;;;;;;0.40;0.40;;;;;;;;;;5032352;28;20033;-85
2023/07/24 06:28:56;;;;;;;0.63;0.63;;;;;;;;;;5032536;28;20033;-85
2023/07/24 06:31:22;;;;;;;0.25;0.25;;;;;;;;;;5032352;28;20029;-85
2023/07/24 06:33:48;;;;;;;0.13;0.13;;;;;;;;;;5032975;28;20025;-85
2023/07/24 06:36:14;;;;;;;0.73;0.40;;;;;;;;;;5032372;28;20402;-85
2023/07/24 06:38:42;;;;;;;2.33;0.52;;;;;;;;;;5032129;28;20033;-85
2023/07/24 06:41:08;;;;;;;1.65;0.65;;;;;;;;;;5032286;28;20021;-85
2023/07/24 06:43:34;;;;;;;0.30;0.30;;;;;;;;;;5032742;28;20116;-85
2023/07/24 06:46:00;;;;;;;0.13;0.13;;;;;;;;;;5032102;28;20424;-85
2023/07/24 06:48:26;;;;;;;0.40;0.40;;;;;;;;;;5032546;28;20040;-84
2023/07/24 06:50:52;;;;;;;1.08;0.28;;;;;;;;;;5032501;28;20470;-86
2023/07/24 06:53:18;;;;;;;0.10;0.10;;;;;;;;;;5031936;28;20104;-85
2023/07/24 06:55:44;;;;;;;0.68;0.17;;;;;;;;;;5032520;28;20486;-85
2023/07/24 06:58:10;;;;;;;0.03;0.03;;;;;;;;;;5032001;28;20037;-85
2023/07/24 07:00:36;;;;;;;0.20;0.20;;;;;;;;;;5032023;28;20083;-85
2023/07/24 07:03:02;;;;;;;0.10;0.10;;;;;;;;;;5031934;28;20021;-86
2023/07/24 07:05:28;;;;;;;0.10;0.10;;;;;;;;;;5031899;28;20044;-85
2023/07/24 07:07:54;;;;;;;1.38;0.85;;;;;;;;;;5031865;28;20108;-85
2023/07/24 07:10:20;;;;;;;0.30;0.30;;;;;;;;;;5030651;28;20108;-85
2023/07/24 07:12:46;;;;;;;0.40;0.40;;;;;;;;;;5032330;28;20033;-85
2023/07/24 07:15:12;;;;;;;0.52;0.52;;;;;;;;;;5031831;28;20029;-85
2023/07/24 07:17:38;;;;;;;0.40;0.40;;;;;;;;;;5031339;28;20387;-85
2023/07/24 07:20:05;;;;;;;0.63;0.60;;;;;;;;;;5031876;28;20026;-85
2023/07/24 07:22:31;;;;;;;5.78;1.20;;;;;;;;;;5032757;28;20021;-85
2023/07/24 07:24:57;;;;;;;1.00;0.28;;;;;;;;;;5031811;28;20060;-86
2023/07/24 07:27:23;;;;;;;0.73;0.63;;;;;;;;;;5031712;28;20025;-85
2023/07/24 07:29:49;;;;;;;0.30;0.30;;;;;;;;;;5030496;28;20017;-85
2023/07/24 07:32:15;;;;;;;0.40;0.40;;;;;;;;;;5031861;28;20034;-85
2023/07/24 07:34:41;;;;;;;0.40;0.32;;;;;;;;;;5035224;28;20022;-85
2023/07/24 07:37:07;;;;;;;0.52;0.52;;;;;;;;;;5035485;28;20109;-85
2023/07/24 07:39:33;;;;;;;0.25;0.25;;;;;;;;;;5036557;28;20040;-85
2023/07/24 07:41:59;;;;;;;0.20;0.20;;;;;;;;;;5035375;28;20029;-86
2023/07/24 07:44:25;;;;;;;0.13;0.13;;;;;;;;;;5035335;28;20481;-85
2023/07/24 07:46:51;;;;;;;0.65;0.30;;;;;;;;;;5035253;28;20109;-85
2023/07/24 07:49:17;;;;;;;0.38;0.30;;;;;;;;;;5035477;28;20382;-86
2023/07/24 07:51:43;;;;;;;0.20;0.15;;;;;;;;;;5035187;28;20033;-85
2023/07/24 07:54:09;;;;;;;0.20;0.20;;;;;;;;;;5035442;28;20484;-86
2023/07/24 07:56:35;;;;;;;0.20;0.20;;;;;;;;;;5035220;28;20030;-85
2023/07/24 07:59:01;;;;;;;0.70;0.45;;;;;;;;;;5035157;28;20101;-85
2023/07/24 08:01:26;;;;;;;0.13;0.10;;;;;;;;;;5034903;28;20034;-85
2023/07/24 08:03:52;;;;;;;0.20;0.20;;;;;;;;;;5033851;28;20119;-85
2023/07/24 08:06:18;;;;;;;0.05;0.05;;;;;;;;;;5034999;28;20045;-85
2023/07/24 08:08:44;;;;;;;0.10;0.10;;;;;;;;;;5035009;28;20025;-85
2023/07/24 08:11:10;;;;;;;0.20;0.20;;;;;;;;;;5035183;28;20033;-85
2023/07/24 08:13:36;;;;;;;0.00;0.00;;;;;;;;;;5034995;28;20543;-85
2023/07/24 08:16:03;;;;;;;0.13;0.10;;;;;;;;;;5034374;28;20098;-85
2023/07/24 08:18:30;;;;;;;0.10;0.10;;;;;;;;;;5034568;28;20500;-85
2023/07/24 08:20:56;;;;;;;0.20;0.20;;;;;;;;;;5035228;28;20048;-85
2023/07/24 08:23:21;;;;;;;0.20;0.20;;;;;;;;;;5034718;28;20462;-84
2023/07/24 08:25:56;;;;;;;0.52;0.52;;;;;;;;;;5034622;28;20041;-85
2023/07/24 08:28:22;;;;;;;0.10;0.10;;;;;;;;;;5034753;28;20024;-85
2023/07/24 08:30:58;;;;;;;0.10;0.10;;;;;;;;;;5034515;28;20164;-85
2023/07/24 08:33:25;;;;;;;0.00;0.00;;;;;;;;;;5035447;28;20021;-85
2023/07/24 08:36:01;;;;;;;0.40;0.40;;;;;;;;;;5034351;28;20030;-85
2023/07/24 08:38:27;;;;;;;0.28;0.10;;;;;;;;;;5034436;28;20033;-85
2023/07/24 08:41:09;;;;;;;0.30;0.30;;;;;;;;;;5034677;28;20424;-85
2023/07/24 08:43:35;;;;;;;0.88;0.38;;;;;;;;;;5033673;28;20164;-85
2023/07/24 08:46:02;;;;;;;0.20;0.20;;;;;;;;;;5033519;28;20040;-85
2023/07/24 08:48:38;;;;;;;0.05;0.05;;;;;;;;;;5034483;28;20502;-85
2023/07/24 08:51:05;;;;;;;1.23;0.47;;;;;;;;;;5034358;28;20107;-85
2023/07/24 08:53:33;;;;;;;0.10;0.10;;;;;;;;;;5034314;28;20017;-85
2023/07/24 08:56:00;;;;;;;0.10;0.10;;;;;;;;;;5034698;28;20029;-85
2023/07/24 08:58:26;;;;;;;0.30;0.30;;;;;;;;;;5033238;28;20025;-85
2023/07/24 09:00:52;;;;;;;0.15;0.15;;;;;;;;;;5034778;28;20025;-85
2023/07/24 09:03:21;;;;;;;0.30;0.30;;;;;;;;;;5032549;28;20075;-85
2023/07/24 09:05:47;;;;;;;0.22;0.22;;;;;;;;;;5033899;28;20044;-85
2023/07/24 09:08:14;;;;;;;0.40;0.40;;;;;;;;;;5033920;28;20044;-85
2023/07/24 09:10:40;;;;;;;1.20;0.55;;;;;;;;;;5034178;28;20087;-86
2023/07/24 09:13:07;;;;;;;0.30;0.30;;;;;;;;;;5033492;28;20024;-85
2023/07/24 09:15:46;;;;;;;0.40;0.40;;;;;;;;;;5033891;28;20076;-85
2023/07/24 09:18:12;;;;;;;0.82;0.70;;;;;;;;;;5033609;28;20061;-85
2023/07/24 09:20:41;;;;;;;1.20;0.93;;;;;;;;;;5033655;28;20040;-85
2023/07/24 09:23:11;;;;;;;1.45;0.55;;;;;;;;;;5033509;28;20105;-85
2023/07/24 09:25:39;;;;;;;2.78;0.85;;;;;;;;;;5034007;28;20057;-85
2023/07/24 09:28:15;;;;;;;0.45;0.45;;;;;;;;;;5033153;28;20021;-85
2023/07/24 09:30:42;;;;;;;0.47;0.47;;;;;;;;;;5033411;28;20034;-85
2023/07/24 09:33:08;;;;;;;0.30;0.30;;;;;;;;;;5033218;28;20473;-86
2023/07/24 09:35:34;;;;;;;1.23;0.73;;;;;;;;;;5033772;28;20030;-85
2023/07/24 09:38:08;;;;;;;2.00;1.00;;;;;;;;;;5033259;28;20036;-85
2023/07/24 09:40:44;;;;;;;1.17;1.08;;;;;;;;;;5033415;28;20022;-85
2023/07/24 09:43:20;;;;;;;0.40;0.35;;;;;;;;;;5033003;28;20063;-85
2023/07/24 09:45:46;;;;;;;0.30;0.30;;;;;;;;;;5033112;28;20052;-86
2023/07/24 09:48:14;;;;;;;0.73;0.70;;;;;;;;;;5033230;28;20025;-85
2023/07/24 09:50:41;;;;;;;1.05;0.95;;;;;;;;;;5033096;28;20033;-85
2023/07/24 09:53:11;;;;;;;0.88;0.50;;;;;;;;;;5033087;28;20025;-86
2023/07/24 09:55:42;;;;;;;0.77;0.30;;;;;;;;;;5033286;28;20038;-85
2023/07/24 09:58:09;;;;;;;0.40;0.40;;;;;;;;;;5032255;28;20083;-85
2023/07/24 10:00:35;;;;;;;0.47;0.47;;;;;;;;;;5033190;28;20107;-85
2023/07/24 10:03:01;;;;;;;0.82;0.82;;;;;;;;;;5032912;28;20144;-85
2023/07/24 10:05:28;;;;;;;0.95;0.45;;;;;;;;;;5032880;28;20055;-85
2023/07/24 10:07:54;;;;;;;2.03;0.90;;;;;;;;;;5033260;28;20032;-86
2023/07/24 10:10:21;;;;;;;0.82;0.40;;;;;;;;;;5032393;28;20079;-86
2023/07/24 10:12:48;;;;;;;0.32;0.17;;;;;;;;;;5032667;28;20068;-86
2023/07/24 10:15:14;;;;;;;1.23;1.08;;;;;;;;;;5032643;28;20485;-85
2023/07/24 10:17:41;;;;;;;0.75;0.50;;;;;;;;;;5032261;28;20073;-85
2023/07/24 10:20:08;;;;;;;0.90;0.45;;;;;;;;;;5032951;28;20477;-85
2023/07/24 10:22:35;;;;;;;0.45;0.45;;;;;;;;;;5032471;28;20504;-85
2023/07/24 10:25:01;;;;;;;2.00;1.02;;;;;;;;;;5032048;28;20076;-85
2023/07/24 10:27:28;;;;;;;0.73;0.73;;;;;;;;;;5032414;28;20424;-86
2023/07/24 10:30:04;;;;;;;0.40;0.40;;;;;;;;;;5032827;28;20056;-85
2023/07/24 10:32:30;;;;;;;1.80;0.52;;;;;;;;;;5032684;28;20104;-86
2023/07/24 10:35:07;;;;;;;0.20;0.20;;;;;;;;;;5032375;28;20072;-85
2023/07/24 10:37:37;;;;;;;0.68;0.38;;;;;;;;;;5032347;28;20478;-86
2023/07/24 10:40:06;;;;;;;0.90;0.82;;;;;;;;;;5032035;28;20021;-86
2023/07/24 10:42:33;;;;;;;0.43;0.43;;;;;;;;;;5032446;28;20079;-85
2023/07/24 10:45:06;;;;;;;2.45;1.42;;;;;;;;;;5032120;28;20037;-85
2023/07/24 10:47:33;;;;;;;0.40;0.40;;;;;;;;;;5032343;28;20124;-86
2023/07/24 10:50:01;;;;;;;0.85;0.50;;;;;;;;;;5032667;28;20030;-86
2023/07/24 10:52:30;;;;;;;0.40;0.40;;;;;;;;;;5032061;28;20477;-86
2023/07/24 10:54:56;;;;;;;1.70;1.00;;;;;;;;;;5031779;28;20025;-85
2023/07/24 10:57:26;;;;;;;0.52;0.52;;;;;;;;;;5032067;28;20029;-85
2023/07/24 10:59:53;;;;;;;0.47;0.20;;;;;;;;;;5031999;28;20532;-86
2023/07/24 11:02:19;;;;;;;0.63;0.63;;;;;;;;;;5032489;28;20033;-85
2023/07/24 11:04:45;;;;;;;0.40;0.40;;;;;;;;;;5032071;28;20025;-85
2023/07/24 11:07:11;;;;;;;0.80;0.80;;;;;;;;;;5031872;28;20041;-86
2023/07/24 11:09:38;;;;;;;0.73;0.60;;;;;;;;;;5035666;28;20044;-85
2023/07/24 11:12:14;;;;;;;0.30;0.10;;;;;;;;;;5036104;28;20052;-86
2023/07/24 11:14:50;;;;;;;0.30;0.30;;;;;;;;;;5035966;28;20109;-86
2023/07/24 11:17:16;;;;;;;0.68;0.57;;;;;;;;;;5035690;28;20467;-85
2023/07/24 11:19:42;;;;;;;2.45;0.77;;;;;;;;;;5035919;28;20528;-86
2023/07/24 11:22:08;;;;;;;0.45;0.40;;;;;;;;;;5035938;28;20528;-86
2023/07/24 11:24:42;;;;;;;0.80;0.80;;;;;;;;;;5035711;28;20022;-86
2023/07/24 11:27:13;;;;;;;0.28;0.28;;;;;;;;;;5035440;28;20049;-86
2023/07/24 11:29:40;;;;;;;0.38;0.38;;;;;;;;;;5035788;28;20087;-85
2023/07/24 11:32:06;;;;;;;0.30;0.30;;;;;;;;;;5036052;28;20022;-86
2023/07/24 11:34:32;;;;;;;0.85;0.50;;;;;;;;;;5036034;28;20493;-86
2023/07/24 11:36:58;;;;;;;0.45;0.30;;;;;;;;;;5035550;28;20033;-86
2023/07/24 11:39:25;;;;;;;0.30;0.30;;;;;;;;;;5035363;28;20025;-85
2023/07/24 11:41:51;;;;;;;2.35;0.73;;;;;;;;;;5035514;28;20057;-85
2023/07/24 11:44:24;;;;;;;1.05;0.38;;;;;;;;;;5035778;28;20363;-85
2023/07/24 11:46:53;;;;;;;0.35;0.22;;;;;;;;;;5035216;28;20032;-86
2023/07/24 11:49:19;;;;;;;0.22;0.22;;;;;;;;;;5035281;28;20112;-86
2023/07/24 11:51:45;;;;;;;0.50;0.50;;;;;;;;;;5035595;28;20101;-85
2023/07/24 11:54:13;;;;;;;0.20;0.20;;;;;;;;;;5035030;28;20549;-86
2023/07/24 11:56:39;;;;;;;2.03;0.65;;;;;;;;;;5035126;28;20064;-86
2023/07/24 11:59:12;;;;;;;0.40;0.30;;;;;;;;;;5034591;28;20049;-86
2023/07/24 12:01:38;;;;;;;0.10;0.10;;;;;;;;;;5035452;28;20033;-85
2023/07/24 12:04:04;;;;;;;0.43;0.28;;;;;;;;;;5035212;28;20022;-85
2023/07/24 12:06:33;;;;;;;0.57;0.45;;;;;;;;;;5034618;28;20413;-86
2023/07/24 12:09:04;;;;;;;0.20;0.20;;;;;;;;;;5035505;28;20029;-85
2023/07/24 12:11:31;;;;;;;0.40;0.40;;;;;;;;;;5034996;28;20026;-86
2023/07/24 12:13:57;;;;;;;0.50;0.50;;;;;;;;;;5034849;28;20017;-85
2023/07/24 12:16:23;;;;;;;0.25;0.25;;;;;;;;;;5034593;28;20414;-85
2023/07/24 12:18:49;;;;;;;0.43;0.43;;;;;;;;;;5034630;28;20027;-86
2023/07/24 12:21:15;;;;;;;0.10;0.10;;;;;;;;;;5033431;28;20033;-86
2023/07/24 12:23:41;;;;;;;0.28;0.28;;;;;;;;;;5034952;28;20509;-85
2023/07/24 12:26:07;;;;;;;0.50;0.50;;;;;;;;;;5034672;28;20045;-86
2023/07/24 12:28:33;;;;;;;0.38;0.38;;;;;;;;;;5034458;28;20413;-85
2023/07/24 12:30:59;;;;;;;0.38;0.30;;;;;;;;;;5034647;28;20053;-86
2023/07/24 12:33:25;;;;;;;0.40;0.40;;;;;;;;;;5034993;28;20617;-85
2023/07/24 12:35:52;;;;;;;0.45;0.20;;;;;;;;;;5034080;28;20040;-85
2023/07/24 12:38:18;;;;;;;1.08;0.90;;;;;;;;;;5034615;28;20026;-85
2023/07/24 12:40:44;;;;;;;0.98;0.32;;;;;;;;;;5034583;28;20104;-85
2023/07/24 12:43:10;;;;;;;0.28;0.28;;;;;;;;;;5034373;28;20022;-86
2023/07/24 12:45:36;;;;;;;0.40;0.40;;;;;;;;;;5034436;28;20543;-85
2023/07/24 12:48:02;;;;;;;0.65;0.30;;;;;;;;;;5034590;28;20053;-85
2023/07/24 12:50:30;;;;;;;0.52;0.45;;;;;;;;;;5033923;28;20029;-85
2023/07/24 12:52:56;;;;;;;0.45;0.45;;;;;;;;;;5034244;28;20036;-85
2023/07/24 12:55:22;;;;;;;1.08;0.47;;;;;;;;;;5034056;28;20109;-85
2023/07/24 12:57:48;;;;;;;0.55;0.28;;;;;;;;;;5033965;28;20043;-85
2023/07/24 13:00:14;;;;;;;2.63;0.40;;;;;;;;;;5034057;28;20034;-85
2023/07/24 13:02:40;;;;;;;0.20;0.20;;;;;;;;;;5033977;28;20029;-86
2023/07/24 13:05:06;;;;;;;0.40;0.35;;;;;;;;;;5033562;28;20026;-85
2023/07/24 13:07:32;;;;;;;0.75;0.75;;;;;;;;;;5034324;28;20029;-86
2023/07/24 13:09:58;;;;;;;0.30;0.30;;;;;;;;;;5033919;28;20171;-86
2023/07/24 13:12:24;;;;;;;0.30;0.30;;;;;;;;;;5033809;28;20512;-86
2023/07/24 13:14:50;;;;;;;2.30;0.55;;;;;;;;;;5033885;28;20018;-86
2023/07/24 13:17:16;;;;;;;0.55;0.52;;;;;;;;;;5033857;28;20478;-86
2023/07/24 13:19:42;;;;;;;1.65;0.80;;;;;;;;;;5033377;28;20398;-86
2023/07/24 13:22:08;;;;;;;0.98;0.82;;;;;;;;;;5034150;28;20104;-86
2023/07/24 13:24:34;;;;;;;0.40;0.40;;;;;;;;;;5033555;28;20033;-86
2023/07/24 13:27:00;;;;;;;0.63;0.63;;;;;;;;;;5033438;28;20075;-86
2023/07/24 13:29:26;;;;;;;0.35;0.35;;;;;;;;;;5035270;28;20022;-86
2023/07/24 13:31:52;;;;;;;0.55;0.40;;;;;;;;;;5033424;28;20108;-86
2023/07/24 13:34:19;;;;;;;2.63;1.58;;;;;;;;;;5033133;28;20453;-86
2023/07/24 13:36:46;;;;;;;0.32;0.32;;;;;;;;;;5033349;28;20033;-86
2023/07/24 13:39:12;;;;;;;0.38;0.35;;;;;;;;;;5033270;28;20072;-87
2023/07/24 13:41:38;;;;;;;0.30;0.20;;;;;;;;;;5033411;28;20075;-86
2023/07/24 13:44:05;;;;;;;1.00;0.52;;;;;;;;;;5033273;28;20025;-86
2023/07/24 13:46:31;;;;;;;0.20;0.20;;;;;;;;;;5033518;28;20037;-86
2023/07/24 13:48:57;;;;;;;0.30;0.30;;;;;;;;;;5032465;28;20083;-86
2023/07/24 13:51:23;;;;;;;0.15;0.15;;;;;;;;;;5033683;28;20107;-86
2023/07/24 13:53:51;;;;;;;0.85;0.38;;;;;;;;;;5032965;28;20029;-86
2023/07/24 13:56:18;;;;;;;0.65;0.65;;;;;;;;;;5032999;28;20025;-86
2023/07/24 13:58:44;;;;;;;0.30;0.30;;;;;;;;;;5033070;28;20025;-86
2023/07/24 14:01:10;;;;;;;0.20;0.20;;;;;;;;;;5032786;28;20036;-86
2023/07/24 14:03:36;;;;;;;0.57;0.50;;;;;;;;;;5033056;28;20030;-86
2023/07/24 14:06:02;;;;;;;0.68;0.20;;;;;;;;;;5032785;28;20482;-85
2023/07/24 14:08:28;;;;;;;0.55;0.20;;;;;;;;;;5032967;28;20060;-86
2023/07/24 14:10:54;;;;;;;0.20;0.20;;;;;;;;;;5033057;28;20103;-86
2023/07/24 14:13:20;;;;;;;0.70;0.52;;;;;;;;;;5032602;28;20032;-85
2023/07/24 14:15:46;;;;;;;0.22;0.22;;;;;;;;;;5032358;28;20025;-84
2023/07/24 14:18:12;;;;;;;0.40;0.40;;;;;;;;;;5032426;28;20039;-86
2023/07/24 14:20:40;;;;;;;1.55;0.73;;;;;;;;;;5033634;28;20044;-86
2023/07/24 14:23:07;;;;;;;0.57;0.57;;;;;;;;;;5032382;28;20014;-86
2023/07/24 14:25:33;;;;;;;0.32;0.32;;;;;;;;;;5032333;28;20026;-86
2023/07/24 14:27:59;;;;;;;0.52;0.47;;;;;;;;;;5032359;28;20164;-85
2023/07/24 14:30:25;;;;;;;0.70;0.70;;;;;;;;;;5032938;28;20041;-85
2023/07/24 14:32:51;;;;;;;0.80;0.45;;;;;;;;;;5032169;28;20030;-86
2023/07/24 14:35:17;;;;;;;0.68;0.63;;;;;;;;;;5032289;28;20393;-86
2023/07/24 14:37:43;;;;;;;0.10;0.10;;;;;;;;;;5032280;28;20031;-86
2023/07/24 14:40:11;;;;;;;4.03;1.20;;;;;;;;;;5032716;28;20022;-86